Henning, Illinois
Current Conditions -  °F | °C
As of 3:35 PM on Monday 24 Nov 2014 (Local Time) from KDNV Reporting Station
Overcast Overcast  
Wind Chill: 19°   Ceiling: 3000
Heat Index: 33°   Visibility: 10mi
Dew Point: 26°   Wind: 28mph
Humidity: 75%   Direction: 250°WSW
Pressure: 29.68"   Gusts: 39mph
Location:  40.31°N, 87.7°W
Report Text: KDNV 242135Z AUTO 25024G34KT 10SM OVC030 01/M03 A2968 RMK AO2 T00051035
Loading
Personal Weather Stations






























Interactive Weather Map New forecast layout! Learn more

10-Day Weather Forecast

Advertisements
Track Severe Weather on mobile